sensor_id;sensor_type;location;lat;lon;timestamp;pressure;altitude;pressure_sealevel;temperature;humidity
9695;BME280;4690;52.422;13.486;2022-12-07T00:06:25;101021.91;;;4.31;91.88
9695;BME280;4690;52.422;13.486;2022-12-07T00:08:51;101027.84;;;4.34;91.97
9695;BME280;4690;52.422;13.486;2022-12-07T00:11:22;101021.25;;;4.29;91.73
9695;BME280;4690;52.422;13.486;2022-12-07T00:13:55;101017.44;;;4.15;91.27
9695;BME280;4690;52.422;13.486;2022-12-07T00:16:25;101014.88;;;4.13;92.27
9695;BME280;4690;52.422;13.486;2022-12-07T00:18:51;101013.22;;;4.12;91.48
9695;BME280;4690;52.422;13.486;2022-12-07T00:21:41;101015.06;;;4.12;91.88
9695;BME280;4690;52.422;13.486;2022-12-07T00:24:06;101008.13;;;4.09;90.53
9695;BME280;4690;52.422;13.486;2022-12-07T00:26:36;101005.34;;;3.94;91.51
9695;BME280;4690;52.422;13.486;2022-12-07T00:29:17;101011.41;;;3.96;91.37
9695;BME280;4690;52.422;13.486;2022-12-07T00:31:43;101014.44;;;4.01;91.49
9695;BME280;4690;52.422;13.486;2022-12-07T00:34:17;101011.06;;;3.99;91.56
9695;BME280;4690;52.422;13.486;2022-12-07T00:36:43;101008.50;;;4.06;91.28
9695;BME280;4690;52.422;13.486;2022-12-07T00:39:09;100995.81;;;3.98;90.77
9695;BME280;4690;52.422;13.486;2022-12-07T00:41:35;101003.91;;;4.07;90.57
9695;BME280;4690;52.422;13.486;2022-12-07T00:44:01;101003.19;;;4.13;91.43
9695;BME280;4690;52.422;13.486;2022-12-07T00:46:27;101001.00;;;4.08;90.81
9695;BME280;4690;52.422;13.486;2022-12-07T00:48:53;100992.28;;;3.98;91.17
9695;BME280;4690;52.422;13.486;2022-12-07T00:51:23;100993.28;;;3.97;90.11
9695;BME280;4690;52.422;13.486;2022-12-07T00:53:50;100996.66;;;3.99;90.44
9695;BME280;4690;52.422;13.486;2022-12-07T00:56:21;100991.16;;;3.84;90.41
9695;BME280;4690;52.422;13.486;2022-12-07T00:58:57;100991.44;;;3.58;89.91
9695;BME280;4690;52.422;13.486;2022-12-07T01:01:26;100982.97;;;3.61;90.04
9695;BME280;4690;52.422;13.486;2022-12-07T01:03:52;100981.06;;;3.70;90.87
9695;BME280;4690;52.422;13.486;2022-12-07T01:06:21;100992.19;;;3.83;88.92
9695;BME280;4690;52.422;13.486;2022-12-07T01:08:47;100992.25;;;3.67;89.49
9695;BME280;4690;52.422;13.486;2022-12-07T01:11:17;100986.13;;;3.73;90.09
9695;BME280;4690;52.422;13.486;2022-12-07T01:13:44;100986.59;;;3.76;89.29
9695;BME280;4690;52.422;13.486;2022-12-07T01:16:14;100977.19;;;3.64;89.41
9695;BME280;4690;52.422;13.486;2022-12-07T01:18:41;100985.84;;;3.59;89.01
9695;BME280;4690;52.422;13.486;2022-12-07T01:21:19;100976.69;;;3.61;89.83
9695;BME280;4690;52.422;13.486;2022-12-07T01:23:46;100981.94;;;3.62;89.47
9695;BME280;4690;52.422;13.486;2022-12-07T01:26:16;100980.31;;;3.45;88.88
9695;BME280;4690;52.422;13.486;2022-12-07T01:28:43;100977.47;;;3.38;89.84
9695;BME280;4690;52.422;13.486;2022-12-07T01:31:12;100971.47;;;3.51;89.21
9695;BME280;4690;52.422;13.486;2022-12-07T01:33:42;100962.03;;;3.47;89.78
9695;BME280;4690;52.422;13.486;2022-12-07T01:36:24;100962.03;;;3.47;89.33
9695;BME280;4690;52.422;13.486;2022-12-07T01:38:54;100958.28;;;3.48;89.23
9695;BME280;4690;52.422;13.486;2022-12-07T01:41:24;100959.13;;;3.48;89.63
9695;BME280;4690;52.422;13.486;2022-12-07T01:46:35;100962.28;;;3.12;90.39
9695;BME280;4690;52.422;13.486;2022-12-07T01:49:02;100958.00;;;3.26;90.07
9695;BME280;4690;52.422;13.486;2022-12-07T01:51:29;100951.03;;;3.40;90.45
9695;BME280;4690;52.422;13.486;2022-12-07T01:53:55;100952.25;;;3.29;90.37
9695;BME280;4690;52.422;13.486;2022-12-07T01:56:26;100962.59;;;3.26;90.37
9695;BME280;4690;52.422;13.486;2022-12-07T01:58:56;100945.88;;;3.14;90.57
9695;BME280;4690;52.422;13.486;2022-12-07T02:01:22;100946.19;;;3.19;90.44
9695;BME280;4690;52.422;13.486;2022-12-07T02:03:49;100947.03;;;3.20;90.36
9695;BME280;4690;52.422;13.486;2022-12-07T02:06:20;100933.28;;;3.29;90.58
9695;BME280;4690;52.422;13.486;2022-12-07T02:08:48;100939.25;;;3.25;90.24
9695;BME280;4690;52.422;13.486;2022-12-07T02:11:15;100942.09;;;3.23;90.14
9695;BME280;4690;52.422;13.486;2022-12-07T02:13:44;100932.31;;;3.14;90.49
9695;BME280;4690;52.422;13.486;2022-12-07T02:16:50;100938.09;;;3.11;89.98
9695;BME280;4690;52.422;13.486;2022-12-07T02:30:57;100928.31;;;2.94;89.87
9695;BME280;4690;52.422;13.486;2022-12-07T02:33:52;100930.50;;;2.98;90.41
9695;BME280;4690;52.422;13.486;2022-12-07T02:36:32;100930.00;;;3.03;90.73
9695;BME280;4690;52.422;13.486;2022-12-07T02:39:15;100923.25;;;2.90;90.58
9695;BME280;4690;52.422;13.486;2022-12-07T02:41:56;100919.84;;;2.97;90.40
9695;BME280;4690;52.422;13.486;2022-12-07T02:44:26;100907.81;;;3.07;90.44
9695;BME280;4690;52.422;13.486;2022-12-07T02:46:59;100911.34;;;3.16;90.01
9695;BME280;4690;52.422;13.486;2022-12-07T02:49:28;100904.91;;;3.17;89.93
9695;BME280;4690;52.422;13.486;2022-12-07T02:51:54;100901.22;;;3.10;89.47
9695;BME280;4690;52.422;13.486;2022-12-07T02:54:21;100902.28;;;2.84;90.04
9695;BME280;4690;52.422;13.486;2022-12-07T03:00:11;100898.97;;;2.50;91.29
9695;BME280;4690;52.422;13.486;2022-12-07T03:03:04;100900.97;;;2.47;91.53
9695;BME280;4690;52.422;13.486;2022-12-07T03:08:35;100888.00;;;2.35;92.18
9695;BME280;4690;52.422;13.486;2022-12-07T03:13:37;100886.97;;;2.44;91.78
9695;BME280;4690;52.422;13.486;2022-12-07T03:16:27;100880.22;;;2.23;92.65
9695;BME280;4690;52.422;13.486;2022-12-07T03:21:40;100872.44;;;2.20;93.30
9695;BME280;4690;52.422;13.486;2022-12-07T03:24:18;100870.25;;;2.32;92.79
9695;BME280;4690;52.422;13.486;2022-12-07T03:26:52;100863.66;;;2.43;92.63
9695;BME280;4690;52.422;13.486;2022-12-07T03:29:27;100857.69;;;2.56;92.86
9695;BME280;4690;52.422;13.486;2022-12-07T03:32:10;100848.22;;;2.60;92.18
9695;BME280;4690;52.422;13.486;2022-12-07T03:35:07;100849.59;;;2.47;91.98
9695;BME280;4690;52.422;13.486;2022-12-07T03:37:56;100844.38;;;2.30;92.71
9695;BME280;4690;52.422;13.486;2022-12-07T03:40:48;100841.53;;;2.31;93.08
9695;BME280;4690;52.422;13.486;2022-12-07T03:43:18;100832.06;;;2.11;93.28
9695;BME280;4690;52.422;13.486;2022-12-07T03:52:08;100818.88;;;2.08;94.23
9695;BME280;4690;52.422;13.486;2022-12-07T03:57:30;100806.53;;;2.13;94.19
9695;BME280;4690;52.422;13.486;2022-12-07T03:59:57;100799.28;;;2.14;94.27
9695;BME280;4690;52.422;13.486;2022-12-07T04:02:26;100781.00;;;2.32;94.83
9695;BME280;4690;52.422;13.486;2022-12-07T04:04:54;100788.63;;;2.29;93.87
9695;BME280;4690;52.422;13.486;2022-12-07T04:07:20;100788.09;;;2.25;94.46
9695;BME280;4690;52.422;13.486;2022-12-07T04:09:46;100784.41;;;2.26;94.03
9695;BME280;4690;52.422;13.486;2022-12-07T04:12:11;100781.84;;;2.33;94.62
9695;BME280;4690;52.422;13.486;2022-12-07T04:14:37;100777.28;;;2.33;94.53
9695;BME280;4690;52.422;13.486;2022-12-07T04:17:03;100783.69;;;2.49;94.34
9695;BME280;4690;52.422;13.486;2022-12-07T04:19:33;100779.41;;;2.62;93.86
9695;BME280;4690;52.422;13.486;2022-12-07T04:22:01;100780.28;;;2.55;93.40
9695;BME280;4690;52.422;13.486;2022-12-07T04:24:27;100785.00;;;2.53;93.66
9695;BME280;4690;52.422;13.486;2022-12-07T04:26:55;100776.25;;;2.51;93.53
9695;BME280;4690;52.422;13.486;2022-12-07T04:29:22;100774.22;;;2.36;93.83
9695;BME280;4690;52.422;13.486;2022-12-07T04:31:48;100775.50;;;2.01;94.84
9695;BME280;4690;52.422;13.486;2022-12-07T04:34:16;100775.16;;;1.96;95.90
9695;BME280;4690;52.422;13.486;2022-12-07T04:36:44;100765.03;;;1.82;97.17
9695;BME280;4690;52.422;13.486;2022-12-07T04:39:29;100757.75;;;1.98;96.06
9695;BME280;4690;52.422;13.486;2022-12-07T04:41:56;100758.09;;;1.87;96.37
9695;BME280;4690;52.422;13.486;2022-12-07T04:44:23;100756.22;;;1.71;97.49
9695;BME280;4690;52.422;13.486;2022-12-07T04:46:50;100753.72;;;1.86;97.49
9695;BME280;4690;52.422;13.486;2022-12-07T04:49:17;100752.53;;;1.89;97.47
9695;BME280;4690;52.422;13.486;2022-12-07T04:51:44;100746.59;;;1.85;98.40
9695;BME280;4690;52.422;13.486;2022-12-07T04:54:10;100745.06;;;2.15;97.78
9695;BME280;4690;52.422;13.486;2022-12-07T04:56:36;100737.91;;;2.31;97.09
9695;BME280;4690;52.422;13.486;2022-12-07T04:59:03;100737.09;;;2.22;96.67
9695;BME280;4690;52.422;13.486;2022-12-07T05:01:29;100738.44;;;2.34;97.08
9695;BME280;4690;52.422;13.486;2022-12-07T05:03:55;100734.75;;;2.11;97.51
9695;BME280;4690;52.422;13.486;2022-12-07T05:06:21;100724.59;;;2.21;97.79
9695;BME280;4690;52.422;13.486;2022-12-07T05:08:47;100727.16;;;2.14;98.13
9695;BME280;4690;52.422;13.486;2022-12-07T05:11:14;100730.44;;;2.41;98.16
9695;BME280;4690;52.422;13.486;2022-12-07T05:14:02;100732.78;;;2.52;97.13
9695;BME280;4690;52.422;13.486;2022-12-07T05:16:28;100722.44;;;2.56;97.30
9695;BME280;4690;52.422;13.486;2022-12-07T05:18:54;100724.28;;;2.63;97.08
9695;BME280;4690;52.422;13.486;2022-12-07T05:21:20;100726.84;;;2.57;97.15
9695;BME280;4690;52.422;13.486;2022-12-07T05:23:46;100724.06;;;2.73;97.23
9695;BME280;4690;52.422;13.486;2022-12-07T05:26:12;100727.31;;;2.68;96.91
9695;BME280;4690;52.422;13.486;2022-12-07T05:28:37;100727.66;;;2.65;97.46
9695;BME280;4690;52.422;13.486;2022-12-07T05:31:03;100722.69;;;2.77;97.30
9695;BME280;4690;52.422;13.486;2022-12-07T05:33:29;100719.91;;;2.62;97.78
9695;BME280;4690;52.422;13.486;2022-12-07T05:35:55;100709.53;;;2.74;97.91
9695;BME280;4690;52.422;13.486;2022-12-07T05:38:21;100716.09;;;2.80;97.77
9695;BME280;4690;52.422;13.486;2022-12-07T05:40:46;100713.03;;;2.83;97.29
9695;BME280;4690;52.422;13.486;2022-12-07T05:43:12;100708.09;;;2.86;97.57
9695;BME280;4690;52.422;13.486;2022-12-07T05:45:38;100712.28;;;2.97;97.79
9695;BME280;4690;52.422;13.486;2022-12-07T05:48:04;100706.69;;;2.99;97.48
9695;BME280;4690;52.422;13.486;2022-12-07T05:50:29;100704.50;;;2.94;97.17
9695;BME280;4690;52.422;13.486;2022-12-07T05:52:55;100702.69;;;2.86;97.80
9695;BME280;4690;52.422;13.486;2022-12-07T05:55:21;100698.69;;;3.05;97.52
9695;BME280;4690;52.422;13.486;2022-12-07T05:57:47;100699.53;;;3.06;97.30
9695;BME280;4690;52.422;13.486;2022-12-07T06:00:32;100700.50;;;3.13;96.91
9695;BME280;4690;52.422;13.486;2022-12-07T06:02:57;100698.28;;;3.17;97.21
9695;BME280;4690;52.422;13.486;2022-12-07T06:05:23;100696.97;;;3.35;96.48
9695;BME280;4690;52.422;13.486;2022-12-07T06:07:49;100699.13;;;3.40;96.48
9695;BME280;4690;52.422;13.486;2022-12-07T06:10:15;100692.50;;;3.43;95.98
9695;BME280;4690;52.422;13.486;2022-12-07T06:12:41;100683.69;;;3.41;95.94
9695;BME280;4690;52.422;13.486;2022-12-07T06:15:10;100681.28;;;3.46;96.15
9695;BME280;4690;52.422;13.486;2022-12-07T06:17:36;100679.41;;;3.46;95.71
9695;BME280;4690;52.422;13.486;2022-12-07T06:20:03;100665.34;;;3.51;95.67
9695;BME280;4690;52.422;13.486;2022-12-07T06:22:29;100668.41;;;3.48;95.86
9695;BME280;4690;52.422;13.486;2022-12-07T06:24:55;100667.94;;;3.44;96.82
9695;BME280;4690;52.422;13.486;2022-12-07T06:27:21;100668.34;;;3.56;96.22
9695;BME280;4690;52.422;13.486;2022-12-07T06:29:46;100664.06;;;3.62;96.37
9695;BME280;4690;52.422;13.486;2022-12-07T06:32:12;100661.03;;;3.42;96.10
9695;BME280;4690;52.422;13.486;2022-12-07T06:34:38;100666.16;;;3.36;96.68
9695;BME280;4690;52.422;13.486;2022-12-07T06:37:04;100660.13;;;3.26;97.11
9695;BME280;4690;52.422;13.486;2022-12-07T06:39:30;100664.69;;;3.49;97.33
9695;BME280;4690;52.422;13.486;2022-12-07T06:41:56;100669.53;;;3.39;97.16
9695;BME280;4690;52.422;13.486;2022-12-07T06:44:23;100664.31;;;3.52;97.29
9695;BME280;4690;52.422;13.486;2022-12-07T06:46:50;100657.44;;;3.64;97.15
9695;BME280;4690;52.422;13.486;2022-12-07T06:49:16;100662.63;;;3.51;96.95
9695;BME280;4690;52.422;13.486;2022-12-07T06:51:42;100666.44;;;3.42;97.77
9695;BME280;4690;52.422;13.486;2022-12-07T06:54:10;100663.59;;;3.58;97.59
9695;BME280;4690;52.422;13.486;2022-12-07T06:56:37;100660.81;;;3.66;97.03
9695;BME280;4690;52.422;13.486;2022-12-07T06:59:04;100657.16;;;3.74;96.79
9695;BME280;4690;52.422;13.486;2022-12-07T07:01:33;100649.03;;;3.74;96.83
9695;BME280;4690;52.422;13.486;2022-12-07T07:04:00;100658.56;;;3.70;96.77
9695;BME280;4690;52.422;13.486;2022-12-07T07:06:25;100659.84;;;3.59;97.03
9695;BME280;4690;52.422;13.486;2022-12-07T07:08:51;100657.47;;;3.79;97.22
9695;BME280;4690;52.422;13.486;2022-12-07T07:11:18;100651.94;;;3.72;97.44
9695;BME280;4690;52.422;13.486;2022-12-07T07:13:45;100657.75;;;3.69;97.60
9695;BME280;4690;52.422;13.486;2022-12-07T07:16:11;100659.13;;;3.65;97.59
9695;BME280;4690;52.422;13.486;2022-12-07T07:18:36;100655.50;;;3.73;97.85
9695;BME280;4690;52.422;13.486;2022-12-07T07:21:03;100655.88;;;3.85;97.19
9695;BME280;4690;52.422;13.486;2022-12-07T07:23:29;100655.34;;;3.89;97.56
9695;BME280;4690;52.422;13.486;2022-12-07T07:25:55;100652.88;;;3.79;97.86
9695;BME280;4690;52.422;13.486;2022-12-07T07:28:21;100655.03;;;3.69;97.82
9695;BME280;4690;52.422;13.486;2022-12-07T07:30:47;100653.16;;;3.85;98.25
9695;BME280;4690;52.422;13.486;2022-12-07T07:33:12;100658.03;;;4.04;97.15
9695;BME280;4690;52.422;13.486;2022-12-07T07:35:39;100652.78;;;4.02;97.26
9695;BME280;4690;52.422;13.486;2022-12-07T07:38:05;100662.16;;;4.15;97.20
9695;BME280;4690;52.422;13.486;2022-12-07T07:40:33;100655.06;;;4.29;97.07
9695;BME280;4690;52.422;13.486;2022-12-07T07:42:58;100651.69;;;4.12;97.05
9695;BME280;4690;52.422;13.486;2022-12-07T07:45:26;100656.53;;;4.16;96.75
9695;BME280;4690;52.422;13.486;2022-12-07T07:47:52;100657.88;;;4.20;96.90
9695;BME280;4690;52.422;13.486;2022-12-07T07:50:19;100653.91;;;4.38;97.22
9695;BME280;4690;52.422;13.486;2022-12-07T07:52:45;100645.41;;;4.41;96.46
9695;BME280;4690;52.422;13.486;2022-12-07T07:55:11;100654.88;;;4.45;96.06
9695;BME280;4690;52.422;13.486;2022-12-07T07:57:39;100659.03;;;4.47;95.79
9695;BME280;4690;52.422;13.486;2022-12-07T08:00:11;100651.88;;;4.40;95.68
9695;BME280;4690;52.422;13.486;2022-12-07T08:02:37;100654.69;;;4.17;96.39
9695;BME280;4690;52.422;13.486;2022-12-07T08:05:03;100654.59;;;4.40;97.28
9695;BME280;4690;52.422;13.486;2022-12-07T08:07:29;100653.75;;;4.39;95.79
9695;BME280;4690;52.422;13.486;2022-12-07T08:09:55;100651.31;;;4.30;95.56
9695;BME280;4690;52.422;13.486;2022-12-07T08:12:21;100656.44;;;4.24;95.90
9695;BME280;4690;52.422;13.486;2022-12-07T08:14:46;100661.75;;;4.47;97.17
9695;BME280;4690;52.422;13.486;2022-12-07T08:17:12;100663.75;;;4.54;95.06
9695;BME280;4690;52.422;13.486;2022-12-07T08:19:38;100665.31;;;4.63;95.94
9695;BME280;4690;52.422;13.486;2022-12-07T08:22:04;100674.00;;;4.58;94.70
9695;BME280;4690;52.422;13.486;2022-12-07T08:24:33;100665.69;;;4.60;94.97
9695;BME280;4690;52.422;13.486;2022-12-07T08:26:58;100664.19;;;4.57;95.41
9695;BME280;4690;52.422;13.486;2022-12-07T08:29:24;100673.13;;;4.72;94.93
9695;BME280;4690;52.422;13.486;2022-12-07T08:31:50;100674.34;;;4.70;94.12
9695;BME280;4690;52.422;13.486;2022-12-07T08:34:16;100672.56;;;4.77;94.20
9695;BME280;4690;52.422;13.486;2022-12-07T08:36:41;100670.66;;;4.56;93.13
9695;BME280;4690;52.422;13.486;2022-12-07T08:39:07;100677.16;;;4.77;93.41
9695;BME280;4690;52.422;13.486;2022-12-07T08:41:33;100673.25;;;4.64;92.69
9695;BME280;4690;52.422;13.486;2022-12-07T08:43:59;100669.91;;;4.62;93.10
9695;BME280;4690;52.422;13.486;2022-12-07T08:46:48;100670.13;;;4.31;91.28
9695;BME280;4690;52.422;13.486;2022-12-07T08:49:21;100671.28;;;4.58;91.49
9695;BME280;4690;52.422;13.486;2022-12-07T08:51:49;100679.03;;;4.76;90.82
9695;BME280;4690;52.422;13.486;2022-12-07T08:54:18;100683.91;;;4.66;89.01
9695;BME280;4690;52.422;13.486;2022-12-07T08:56:46;100682.59;;;4.77;89.27
9695;BME280;4690;52.422;13.486;2022-12-07T08:59:17;100685.19;;;4.85;89.95
9695;BME280;4690;52.422;13.486;2022-12-07T09:01:43;100684.81;;;4.88;88.37
9695;BME280;4690;52.422;13.486;2022-12-07T09:04:09;100687.66;;;4.80;88.56
9695;BME280;4690;52.422;13.486;2022-12-07T09:06:35;100690.44;;;4.86;89.08
9695;BME280;4690;52.422;13.486;2022-12-07T09:09:02;100695.00;;;4.86;89.63
9695;BME280;4690;52.422;13.486;2022-12-07T09:11:28;100694.00;;;4.72;89.30
9695;BME280;4690;52.422;13.486;2022-12-07T09:13:54;100692.53;;;4.69;88.67
9695;BME280;4690;52.422;13.486;2022-12-07T09:16:20;100689.91;;;4.76;89.78
9695;BME280;4690;52.422;13.486;2022-12-07T09:18:46;100702.13;;;4.87;89.66
9695;BME280;4690;52.422;13.486;2022-12-07T09:21:12;100702.13;;;4.87;89.54
9695;BME280;4690;52.422;13.486;2022-12-07T09:23:38;100705.38;;;4.97;88.56
9695;BME280;4690;52.422;13.486;2022-12-07T09:26:04;100706.03;;;4.99;87.35
9695;BME280;4690;52.422;13.486;2022-12-07T09:28:31;100708.88;;;4.91;88.07
9695;BME280;4690;52.422;13.486;2022-12-07T09:30:56;100697.47;;;4.81;87.87
9695;BME280;4690;52.422;13.486;2022-12-07T09:33:22;100704.75;;;4.80;88.55
9695;BME280;4690;52.422;13.486;2022-12-07T09:35:51;100698.00;;;4.91;87.47
9695;BME280;4690;52.422;13.486;2022-12-07T09:38:18;100711.84;;;4.96;88.43
9695;BME280;4690;52.422;13.486;2022-12-07T09:40:45;100703.50;;;4.98;87.76
9695;BME280;4690;52.422;13.486;2022-12-07T09:43:24;100704.97;;;4.79;86.42
9695;BME280;4690;52.422;13.486;2022-12-07T09:45:53;100705.69;;;4.87;87.25
9695;BME280;4690;52.422;13.486;2022-12-07T09:48:25;100711.09;;;5.02;86.33
9695;BME280;4690;52.422;13.486;2022-12-07T09:50:58;100726.31;;;4.67;85.15
9695;BME280;4690;52.422;13.486;2022-12-07T09:53:32;100714.22;;;4.69;83.92
9695;BME280;4690;52.422;13.486;2022-12-07T09:55:59;100723.06;;;4.57;85.96
9695;BME280;4690;52.422;13.486;2022-12-07T09:58:28;100727.53;;;4.49;85.52
9695;BME280;4690;52.422;13.486;2022-12-07T10:03:38;100738.19;;;4.81;86.13
9695;BME280;4690;52.422;13.486;2022-12-07T10:06:06;100722.69;;;4.60;84.95
9695;BME280;4690;52.422;13.486;2022-12-07T10:08:33;100735.31;;;4.67;85.28
9695;BME280;4690;52.422;13.486;2022-12-07T10:11:02;100734.56;;;4.14;84.72
9695;BME280;4690;52.422;13.486;2022-12-07T10:13:45;100724.53;;;4.30;86.10
9695;BME280;4690;52.422;13.486;2022-12-07T10:18:50;100730.16;;;4.43;85.54
9695;BME280;4690;52.422;13.486;2022-12-07T10:21:24;100733.81;;;4.50;85.86
9695;BME280;4690;52.422;13.486;2022-12-07T10:24:14;100733.63;;;4.52;86.28
9695;BME280;4690;52.422;13.486;2022-12-07T10:27:00;100738.50;;;4.56;85.43
9695;BME280;4690;52.422;13.486;2022-12-07T10:29:39;100725.88;;;4.48;85.86
9695;BME280;4690;52.422;13.486;2022-12-07T10:34:42;100729.41;;;4.34;85.83
9695;BME280;4690;52.422;13.486;2022-12-07T10:39:54;100729.72;;;4.39;84.81
9695;BME280;4690;52.422;13.486;2022-12-07T10:42:23;100724.91;;;4.41;82.75
9695;BME280;4690;52.422;13.486;2022-12-07T10:45:17;100725.28;;;4.53;83.33
9695;BME280;4690;52.422;13.486;2022-12-07T10:54:21;100712.09;;;4.50;82.08
9695;BME280;4690;52.422;13.486;2022-12-07T10:57:02;100722.97;;;4.65;79.97
9695;BME280;4690;52.422;13.486;2022-12-07T11:15:53;100700.09;;;5.32;78.51
9695;BME280;4690;52.422;13.486;2022-12-07T11:18:54;100711.19;;;5.30;76.96
9695;BME280;4690;52.422;13.486;2022-12-07T11:24:18;100708.72;;;5.57;77.72
9695;BME280;4690;52.422;13.486;2022-12-07T11:27:10;100704.72;;;5.53;77.11
9695;BME280;4690;52.422;13.486;2022-12-07T11:30:19;100704.31;;;5.56;77.33
9695;BME280;4690;52.422;13.486;2022-12-07T11:36:16;100704.31;;;5.77;77.35
9695;BME280;4690;52.422;13.486;2022-12-07T11:38:59;100694.28;;;5.78;77.02
9695;BME280;4690;52.422;13.486;2022-12-07T11:41:38;100697.53;;;5.67;77.84
9695;BME280;4690;52.422;13.486;2022-12-07T11:47:48;100690.94;;;5.82;76.74
9695;BME280;4690;52.422;13.486;2022-12-07T11:50:38;100697.13;;;5.70;76.91
9695;BME280;4690;52.422;13.486;2022-12-07T11:53:19;100688.06;;;5.91;75.89
9695;BME280;4690;52.422;13.486;2022-12-07T11:58:56;100692.22;;;5.58;77.16
9695;BME280;4690;52.422;13.486;2022-12-07T12:06:36;100683.19;;;5.79;75.86
9695;BME280;4690;52.422;13.486;2022-12-07T12:09:19;100688.31;;;5.68;75.87
9695;BME280;4690;52.422;13.486;2022-12-07T12:20:58;100675.69;;;5.81;74.84
9695;BME280;4690;52.422;13.486;2022-12-07T12:23:58;100673.09;;;5.73;75.69
9695;BME280;4690;52.422;13.486;2022-12-07T12:26:30;100672.91;;;5.75;74.75
9695;BME280;4690;52.422;13.486;2022-12-07T12:31:40;100683.97;;;5.95;75.63
9695;BME280;4690;52.422;13.486;2022-12-07T12:34:58;100679.44;;;5.80;76.12
9695;BME280;4690;52.422;13.486;2022-12-07T12:37:39;100664.13;;;6.01;75.12
9695;BME280;4690;52.422;13.486;2022-12-07T12:42:52;100664.72;;;5.96;74.67
9695;BME280;4690;52.422;13.486;2022-12-07T12:50:40;100668.91;;;5.71;75.84
9695;BME280;4690;52.422;13.486;2022-12-07T12:53:21;100655.59;;;5.54;76.63
9695;BME280;4690;52.422;13.486;2022-12-07T12:56:41;100650.34;;;5.53;77.62
9695;BME280;4690;52.422;13.486;2022-12-07T12:59:31;100655.56;;;5.76;76.46
9695;BME280;4690;52.422;13.486;2022-12-07T13:05:27;100670.53;;;5.65;76.70
9695;BME280;4690;52.422;13.486;2022-12-07T13:15:37;100652.44;;;5.79;77.27
9695;BME280;4690;52.422;13.486;2022-12-07T13:26:42;100652.19;;;5.74;75.29
9695;BME280;4690;52.422;13.486;2022-12-07T13:29:19;100637.66;;;5.60;77.50
9695;BME280;4690;52.422;13.486;2022-12-07T13:31:56;100641.44;;;5.66;76.47
9695;BME280;4690;52.422;13.486;2022-12-07T13:34:40;100642.00;;;5.82;75.57
9695;BME280;4690;52.422;13.486;2022-12-07T13:37:27;100636.16;;;5.85;76.30
9695;BME280;4690;52.422;13.486;2022-12-07T13:42:34;100637.53;;;5.96;74.60
9695;BME280;4690;52.422;13.486;2022-12-07T13:45:23;100641.28;;;5.67;76.07
9695;BME280;4690;52.422;13.486;2022-12-07T13:50:55;100642.34;;;5.73;76.29
9695;BME280;4690;52.422;13.486;2022-12-07T13:53:21;100649.59;;;5.66;75.78
9695;BME280;4690;52.422;13.486;2022-12-07T13:55:48;100651.56;;;5.72;76.10
9695;BME280;4690;52.422;13.486;2022-12-07T13:58:14;100660.41;;;5.80;75.97
9695;BME280;4690;52.422;13.486;2022-12-07T14:00:42;100659.91;;;5.70;76.19
9695;BME280;4690;52.422;13.486;2022-12-07T14:05:43;100663.72;;;5.54;78.03
9695;BME280;4690;52.422;13.486;2022-12-07T14:13:38;100653.56;;;5.63;77.57
9695;BME280;4690;52.422;13.486;2022-12-07T14:16:27;100667.41;;;5.68;77.26
9695;BME280;4690;52.422;13.486;2022-12-07T14:18:55;100660.34;;;5.74;77.56
9695;BME280;4690;52.422;13.486;2022-12-07T14:21:32;100662.03;;;5.47;78.20
9695;BME280;4690;52.422;13.486;2022-12-07T14:24:19;100664.81;;;5.60;78.31
9695;BME280;4690;52.422;13.486;2022-12-07T14:26:49;100663.66;;;5.69;77.28
9695;BME280;4690;52.422;13.486;2022-12-07T14:34:41;100666.81;;;5.73;77.16
9695;BME280;4690;52.422;13.486;2022-12-07T14:37:09;100658.03;;;5.71;77.57
9695;BME280;4690;52.422;13.486;2022-12-07T14:39:36;100664.75;;;5.75;77.52
9695;BME280;4690;52.422;13.486;2022-12-07T14:42:01;100656.28;;;5.63;77.13
9695;BME280;4690;52.422;13.486;2022-12-07T14:44:27;100655.19;;;5.57;77.24
9695;BME280;4690;52.422;13.486;2022-12-07T14:46:54;100660.13;;;5.47;78.24
9695;BME280;4690;52.422;13.486;2022-12-07T14:49:19;100649.31;;;5.54;77.46
9695;BME280;4690;52.422;13.486;2022-12-07T14:51:46;100656.81;;;5.52;78.01
9695;BME280;4690;52.422;13.486;2022-12-07T14:54:20;100651.03;;;5.33;78.31
9695;BME280;4690;52.422;13.486;2022-12-07T14:56:49;100647.16;;;5.21;78.80
9695;BME280;4690;52.422;13.486;2022-12-07T14:59:17;100645.13;;;5.08;79.90
9695;BME280;4690;52.422;13.486;2022-12-07T15:01:44;100647.72;;;5.16;80.17
9695;BME280;4690;52.422;13.486;2022-12-07T15:04:10;100648.50;;;5.10;79.63
9695;BME280;4690;52.422;13.486;2022-12-07T15:06:35;100647.78;;;5.23;79.51
9695;BME280;4690;52.422;13.486;2022-12-07T15:09:02;100646.28;;;5.21;79.14
9695;BME280;4690;52.422;13.486;2022-12-07T15:11:28;100638.66;;;5.09;78.69
9695;BME280;4690;52.422;13.486;2022-12-07T15:13:54;100641.75;;;5.06;79.10
9695;BME280;4690;52.422;13.486;2022-12-07T15:16:39;100638.41;;;5.04;79.57
9695;BME280;4690;52.422;13.486;2022-12-07T15:19:16;100641.75;;;5.06;78.90
9695;BME280;4690;52.422;13.486;2022-12-07T15:21:43;100644.47;;;4.85;80.02
9695;BME280;4690;52.422;13.486;2022-12-07T15:24:12;100633.88;;;4.90;79.69
9695;BME280;4690;52.422;13.486;2022-12-07T15:26:39;100634.84;;;4.82;79.92
9695;BME280;4690;52.422;13.486;2022-12-07T15:29:06;100640.28;;;4.82;79.63
9695;BME280;4690;52.422;13.486;2022-12-07T15:31:33;100640.28;;;4.82;79.59
9695;BME280;4690;52.422;13.486;2022-12-07T15:33:59;100643.50;;;4.92;80.48
9695;BME280;4690;52.422;13.486;2022-12-07T15:36:28;100654.63;;;4.98;79.27
9695;BME280;4690;52.422;13.486;2022-12-07T15:38:55;100649.91;;;4.85;79.77
9695;BME280;4690;52.422;13.486;2022-12-07T15:41:22;100652.91;;;4.90;79.68
9695;BME280;4690;52.422;13.486;2022-12-07T15:43:48;100645.50;;;4.84;79.67
9695;BME280;4690;52.422;13.486;2022-12-07T15:46:39;100648.84;;;4.49;81.35
9695;BME280;4690;52.422;13.486;2022-12-07T15:49:15;100643.81;;;4.46;81.69
9695;BME280;4690;52.422;13.486;2022-12-07T15:51:42;100648.19;;;4.62;81.57
9695;BME280;4690;52.422;13.486;2022-12-07T15:54:24;100638.56;;;4.60;81.72
9695;BME280;4690;52.422;13.486;2022-12-07T15:56:51;100640.16;;;4.54;81.33
9695;BME280;4690;52.422;13.486;2022-12-07T15:59:17;100643.53;;;4.41;82.52